Logo AVAMET
Benvolgut visitant, si us plau, ingressa Recuperar contrasenya

Atzeneta del Maestrat Ajuntament

Dades diàries. Acumulats / Últims 30 dies disponibles

Data Temperatura (°C) Humitat rel. (%) Pressió rel. (hPa) Vent (km/h) Precipi-
tació (mm)
Mínima Mitjana Màxima Mínima Mitjana Màxima Mínima Mitjana Màxima Predom. Mitjana Ràfega
màxima
Mínima Mitjana Màxima Mínima Mitjana Màxima
Dades mensuals acumulades fins l'últim dia disponible
05/2018 1,3 8,9 12,8 15,9 17,0 23,2 25,7   3,0 45,1 16,0
Dades anuals acumulades fins l'últim dia disponible
2018 -4,9 4,7 15,7 11,0 4,4 17,9 27,4   3,2 54,7 171,8
Últims 30 dies disponibles
23-05-2018 11,5     18,4     25,7 E 2,7 22,5 0,0
22-05-2018 8,2     15,2     23,3 ENE 0,8 20,9 5,4
21-05-2018 8,4     15,3     24,3 ENE 1,3 22,5 0,8
20-05-2018 10,3     16,8     23,8 SW 2,1 19,3 0,2
19-05-2018 7,6     17,1     24,6 ESE 3,2 25,7 0,0
18-05-2018 9,4     16,4     22,3 ESE 2,6 27,4 0,0
17-05-2018 7,0     16,6     23,9 SW 3,2 22,5 0,0
16-05-2018 8,6     16,9     24,1 SW 3,2 25,7 0,0
15-05-2018 10,2     16,3     24,2 NNE 3,5 22,5 0,0
14-05-2018 7,4     15,6     23,1 NNE 3,5 33,8 0,0
13-05-2018 8,7     14,8     22,0 NNE 4,7 40,2 0,0
12-05-2018 10,9     16,7     24,1 ESE 3,7 29,0 0,6
11-05-2018 7,8     16,3     24,6 SSE 3,5 24,1 0,0
10-05-2018 12,8     17,2     23,4 SSW 4,0 22,5 0,0
09-05-2018 9,5     17,4     24,1 SW 2,9 20,9 0,2
08-05-2018 8,8     15,9     22,2 SW 1,1 16,1 8,0
07-05-2018 7,7     15,9     23,8 ESE 1,6 19,3 0,2
06-05-2018 9,8     15,3     22,2 SW 1,9 29,0 0,6
05-05-2018 11,4     16,2     24,1 ESE 2,7 30,6 0,0
04-05-2018 10,1     14,2     20,9 NNE 3,4 20,9 0,0
03-05-2018 12,2     16,8     21,9 NNE 7,1 45,1 0,0
02-05-2018 1,3     12,7     23,0 SW 1,8 25,7 0,0
01-05-2018 5,7     11,4     17,0 NNE 3,7 30,6 0,0
30-04-2018 3,3     11,8     18,8 SW 1,9 22,5 4,0
29-04-2018 10,2     15,2     19,8 WSW 4,8 41,8 0,0
28-04-2018 11,3     15,6     20,9 ESE 3,4 27,4 0,2
27-04-2018 8,2     16,7     27,4 SE 1,8 30,6 3,2
26-04-2018 12,7     17,9     24,8 ENE 3,5 27,4 0,0
25-04-2018 7,3     16,8     25,9 ESE 3,1 30,6 0,0
24-04-2018 8,3     16,8     25,1 ESE 2,7 25,7 0,0
Últims 13 mesos disponibles
04/2018 1,0 6,2 12,7 13,2 11,8 20,5 27,4 2,9 41,8 59,0
03/2018 0,7 4,9 10,3 10,9 12,2 17,3 24,8 4,6 54,7 19,2
02/2018 -4,9 1,6 7,5 7,0 4,4 13,0 21,8 3,0 48,3 49,8
01/2018 -2,2 2,6 15,7 9,0 9,4 16,4 24,7 2,6 53,1 27,8
12/2017 -5,3 0,5 9,3 7,4 8,4 15,3 22,1 3,2 62,8 2,2
11/2017 -2,5 3,7 9,8 10,5 12,3 18,6 23,7 2,9 61,2 3,4
10/2017 4,9 9,8 16,7 16,7 18,3 24,8 29,8 2,1 25,7 37,2
09/2017 6,7 12,7 17,6 19,0 18,6 26,5 34,1 2,6 38,6 47,8
08/2017 10,7 16,7 21,0 23,6 25,3 30,5 36,9 3,1 32,2 50,2
07/2017 11,6 17,0 21,3 24,1 20,8 30,8 34,5 3,6 30,6 3,0
06/2017 11,1 15,3 19,7 23,3 19,9 30,1 34,0 3,6 40,2 16,4
05/2017 3,5 9,6 14,3 17,7 19,6 25,4 30,8 3,4 35,4 6,8
04/2017 -1,1 4,8 9,9 12,9 12,1 20,6 27,9 3,0 40,2 23,6
Tots els anys disponibles
2017 -5,3 8,2 21,3 15,2 4,1 22,6 36,9 3,1 69,2 339,8
Temperatura (°C)
Humitat relativa (%)
Velocitat del vent (km/h) i direcció (°)
Pressió (hPa) i precipitació (mm)
Nota sobre les dades: s'avisa a l'usuari de la provisionalitat i no oficialitat d'aquestes dades
Logo AVAMET blanc
Llicència de Creative CommonsLa web d'AVAMET i els seus continguts estan subjectes a una llicència de
Reconeixement - No Comercial - Compartir igual
Properes estacions:  Quart de Poblet-Centre (Ajuntament soci),  Santa Pola (Ajuntament soci), Castelló de la Plana - IES Sos Baynat (soci), Enguera - Navalón (soci-ADENE), Borriol - Vall del Morico (soci), Montanejos (Ajuntament soci)  - - - - -   Últimes estacions: Villena - ciutat (soci), Vilallonga - Pla de la Llacuna (soci), Vilallonga - Nord (soci), Palma de Gandia-Marxuquera (soci) - - - - - - - - - - - - Properes estacions:  Quart de Poblet-Centre (Ajuntament soci),  Santa Pola (Ajuntament soci), Castelló de la Plana - IES Sos Baynat (soci), Enguera - Navalón (soci-ADENE), Borriol - Vall del Morico (soci), Montanejos (Ajuntament soci)  - - - - -   Últimes estacions: Villena - ciutat (soci), Vilallonga - Pla de la Llacuna (soci), Vilallonga - Nord (soci), Palma de Gandia-Marxuquera (soci)